sensor_id;sensor_type;location;lat;lon;timestamp;temperature;humidity
66726;HTU21D;53638;51.062;5.804;2023-04-15T00:01:26;9.49;114.32
66726;HTU21D;53638;51.062;5.804;2023-04-15T00:03:53;9.44;115.03
66726;HTU21D;53638;51.062;5.804;2023-04-15T00:06:20;9.44;115.28
66726;HTU21D;53638;51.062;5.804;2023-04-15T00:08:47;9.51;116.62
66726;HTU21D;53638;51.062;5.804;2023-04-15T00:11:13;9.57;117.95
66726;HTU21D;53638;51.062;5.804;2023-04-15T00:13:40;9.62;118.67
66726;HTU21D;53638;51.062;5.804;2023-04-15T00:16:07;9.61;118.40
66726;HTU21D;53638;51.062;5.804;2023-04-15T00:18:33;9.61;117.34
66726;HTU21D;53638;51.062;5.804;2023-04-15T00:21:00;9.57;117.55
66726;HTU21D;53638;51.062;5.804;2023-04-15T00:23:27;9.53;117.37
66726;HTU21D;53638;51.062;5.804;2023-04-15T00:25:53;9.53;116.60
66726;HTU21D;53638;51.062;5.804;2023-04-15T00:28:19;9.57;116.80
66726;HTU21D;53638;51.062;5.804;2023-04-15T00:30:45;9.60;116.26
66726;HTU21D;53638;51.062;5.804;2023-04-15T00:33:13;9.60;115.99
66726;HTU21D;53638;51.062;5.804;2023-04-15T00:35:39;9.53;116.85
66726;HTU21D;53638;51.062;5.804;2023-04-15T00:38:05;9.47;116.73
66726;HTU21D;53638;51.062;5.804;2023-04-15T00:40:33;9.45;116.12
66726;HTU21D;53638;51.062;5.804;2023-04-15T00:43:00;9.44;115.60
66726;HTU21D;53638;51.062;5.804;2023-04-15T00:45:26;9.35;115.76
66726;HTU21D;53638;51.062;5.804;2023-04-15T00:47:54;9.25;116.44
66726;HTU21D;53638;51.062;5.804;2023-04-15T00:50:20;9.25;117.32
66726;HTU21D;53638;51.062;5.804;2023-04-15T00:52:47;9.22;116.98
66726;HTU21D;53638;51.062;5.804;2023-04-15T00:55:14;9.26;116.86
66726;HTU21D;53638;51.062;5.804;2023-04-15T00:57:40;9.32;116.36
66726;HTU21D;53638;51.062;5.804;2023-04-15T01:00:07;9.29;115.25
66726;HTU21D;53638;51.062;5.804;2023-04-15T01:02:35;9.26;114.43
66726;HTU21D;53638;51.062;5.804;2023-04-15T01:05:01;9.30;113.36
66726;HTU21D;53638;51.062;5.804;2023-04-15T01:07:29;9.29;113.53
66726;HTU21D;53638;51.062;5.804;2023-04-15T01:09:55;9.23;114.48
66726;HTU21D;53638;51.062;5.804;2023-04-15T01:12:25;9.21;114.93
66726;HTU21D;53638;51.062;5.804;2023-04-15T01:14:52;9.18;116.06
66726;HTU21D;53638;51.062;5.804;2023-04-15T01:17:20;9.11;118.41
66726;HTU21D;53638;51.062;5.804;2023-04-15T01:19:46;9.07;118.09
66726;HTU21D;53638;51.062;5.804;2023-04-15T01:22:12;9.06;118.55
66726;HTU21D;53638;51.062;5.804;2023-04-15T01:24:38;9.05;117.90
66726;HTU21D;53638;51.062;5.804;2023-04-15T01:27:05;9.08;118.11
66726;HTU21D;53638;51.062;5.804;2023-04-15T01:29:34;9.09;117.39
66726;HTU21D;53638;51.062;5.804;2023-04-15T01:32:00;9.08;117.59
66726;HTU21D;53638;51.062;5.804;2023-04-15T01:34:26;9.06;117.63
66726;HTU21D;53638;51.062;5.804;2023-04-15T01:36:53;9.10;116.95
66726;HTU21D;53638;51.062;5.804;2023-04-15T01:39:20;9.14;115.90
66726;HTU21D;53638;51.062;5.804;2023-04-15T01:41:46;9.12;115.52
66726;HTU21D;53638;51.062;5.804;2023-04-15T01:44:13;9.09;115.93
66726;HTU21D;53638;51.062;5.804;2023-04-15T01:46:40;9.09;116.15
66726;HTU21D;53638;51.062;5.804;2023-04-15T01:49:08;9.04;117.98
66726;HTU21D;53638;51.062;5.804;2023-04-15T01:51:35;9.01;118.99
66726;HTU21D;53638;51.062;5.804;2023-04-15T01:54:02;8.96;118.99
66726;HTU21D;53638;51.062;5.804;2023-04-15T01:56:30;8.90;118.99
66726;HTU21D;53638;51.062;5.804;2023-04-15T01:58:57;8.88;118.99
66726;HTU21D;53638;51.062;5.804;2023-04-15T02:01:24;8.89;118.99
66726;HTU21D;53638;51.062;5.804;2023-04-15T02:03:51;8.92;118.99
66726;HTU21D;53638;51.062;5.804;2023-04-15T02:06:18;8.97;118.99
66726;HTU21D;53638;51.062;5.804;2023-04-15T02:08:45;9.03;118.99
66726;HTU21D;53638;51.062;5.804;2023-04-15T02:11:12;9.06;118.96
66726;HTU21D;53638;51.062;5.804;2023-04-15T02:13:39;9.10;118.66
66726;HTU21D;53638;51.062;5.804;2023-04-15T02:16:17;9.11;118.42
66726;HTU21D;53638;51.062;5.804;2023-04-15T02:18:45;9.12;118.18
66726;HTU21D;53638;51.062;5.804;2023-04-15T02:21:13;9.02;118.99
66726;HTU21D;53638;51.062;5.804;2023-04-15T02:23:40;8.97;118.99
66726;HTU21D;53638;51.062;5.804;2023-04-15T02:26:07;9.00;118.73
66726;HTU21D;53638;51.062;5.804;2023-04-15T02:28:34;9.00;118.09
66726;HTU21D;53638;51.062;5.804;2023-04-15T02:31:07;9.03;117.59
66726;HTU21D;53638;51.062;5.804;2023-04-15T02:33:35;9.04;117.79
66726;HTU21D;53638;51.062;5.804;2023-04-15T02:36:03;9.01;117.61
66726;HTU21D;53638;51.062;5.804;2023-04-15T02:38:31;8.96;118.03
66726;HTU21D;53638;51.062;5.804;2023-04-15T02:40:58;8.91;118.71
66726;HTU21D;53638;51.062;5.804;2023-04-15T02:43:25;8.87;118.99
66726;HTU21D;53638;51.062;5.804;2023-04-15T02:45:52;8.76;118.99
66726;HTU21D;53638;51.062;5.804;2023-04-15T02:48:22;8.63;118.99
66726;HTU21D;53638;51.062;5.804;2023-04-15T02:51:10;8.56;118.99
66726;HTU21D;53638;51.062;5.804;2023-04-15T02:53:37;8.51;118.99
66726;HTU21D;53638;51.062;5.804;2023-04-15T02:56:04;8.43;118.99
66726;HTU21D;53638;51.062;5.804;2023-04-15T02:58:32;8.36;118.99
66726;HTU21D;53638;51.062;5.804;2023-04-15T03:01:00;8.29;118.99
66726;HTU21D;53638;51.062;5.804;2023-04-15T03:03:28;8.29;118.99
66726;HTU21D;53638;51.062;5.804;2023-04-15T03:05:55;8.29;118.99
66726;HTU21D;53638;51.062;5.804;2023-04-15T03:08:22;8.28;118.99
66726;HTU21D;53638;51.062;5.804;2023-04-15T03:10:49;8.20;118.99
66726;HTU21D;53638;51.062;5.804;2023-04-15T03:13:19;8.09;118.99
66726;HTU21D;53638;51.062;5.804;2023-04-15T03:15:47;7.93;118.99
66726;HTU21D;53638;51.062;5.804;2023-04-15T03:18:14;7.78;118.99
66726;HTU21D;53638;51.062;5.804;2023-04-15T03:20:42;7.71;118.99
66726;HTU21D;53638;51.062;5.804;2023-04-15T03:23:09;7.64;118.99
66726;HTU21D;53638;51.062;5.804;2023-04-15T03:25:36;7.60;118.99
66726;HTU21D;53638;51.062;5.804;2023-04-15T03:28:06;7.57;118.99
66726;HTU21D;53638;51.062;5.804;2023-04-15T03:30:33;7.59;118.99
66726;HTU21D;53638;51.062;5.804;2023-04-15T03:33:00;7.60;118.99
66726;HTU21D;53638;51.062;5.804;2023-04-15T03:35:28;7.65;118.99
66726;HTU21D;53638;51.062;5.804;2023-04-15T03:37:55;7.71;118.99
66726;HTU21D;53638;51.062;5.804;2023-04-15T03:40:22;7.73;118.99
66726;HTU21D;53638;51.062;5.804;2023-04-15T03:42:49;7.74;118.99
66726;HTU21D;53638;51.062;5.804;2023-04-15T03:45:17;7.74;118.99
66726;HTU21D;53638;51.062;5.804;2023-04-15T03:47:44;7.79;118.99
66726;HTU21D;53638;51.062;5.804;2023-04-15T03:50:11;7.79;118.99
66726;HTU21D;53638;51.062;5.804;2023-04-15T03:52:38;7.76;118.99
66726;HTU21D;53638;51.062;5.804;2023-04-15T03:55:05;7.74;118.99
66726;HTU21D;53638;51.062;5.804;2023-04-15T03:57:33;7.78;118.99
66726;HTU21D;53638;51.062;5.804;2023-04-15T04:00:05;7.77;118.99
66726;HTU21D;53638;51.062;5.804;2023-04-15T04:02:53;7.82;118.99
66726;HTU21D;53638;51.062;5.804;2023-04-15T04:05:20;7.88;118.99
66726;HTU21D;53638;51.062;5.804;2023-04-15T04:07:47;7.98;118.99
66726;HTU21D;53638;51.062;5.804;2023-04-15T04:10:14;8.06;118.99
66726;HTU21D;53638;51.062;5.804;2023-04-15T04:12:41;8.14;118.99
66726;HTU21D;53638;51.062;5.804;2023-04-15T04:15:08;8.18;118.99
66726;HTU21D;53638;51.062;5.804;2023-04-15T04:17:35;8.22;118.99
66726;HTU21D;53638;51.062;5.804;2023-04-15T04:20:03;8.28;118.99
66726;HTU21D;53638;51.062;5.804;2023-04-15T04:22:36;8.27;118.99
66726;HTU21D;53638;51.062;5.804;2023-04-15T04:25:04;8.24;118.99
66726;HTU21D;53638;51.062;5.804;2023-04-15T04:27:31;8.23;118.99
66726;HTU21D;53638;51.062;5.804;2023-04-15T04:29:58;8.20;118.99
66726;HTU21D;53638;51.062;5.804;2023-04-15T04:32:25;8.18;118.99
66726;HTU21D;53638;51.062;5.804;2023-04-15T04:34:53;8.20;118.99
66726;HTU21D;53638;51.062;5.804;2023-04-15T04:37:20;8.24;118.99
66726;HTU21D;53638;51.062;5.804;2023-04-15T04:39:47;8.26;118.99
66726;HTU21D;53638;51.062;5.804;2023-04-15T04:42:14;8.24;118.99
66726;HTU21D;53638;51.062;5.804;2023-04-15T04:44:41;8.27;118.99
66726;HTU21D;53638;51.062;5.804;2023-04-15T04:47:08;8.24;118.99
66726;HTU21D;53638;51.062;5.804;2023-04-15T04:49:35;8.23;118.99
66726;HTU21D;53638;51.062;5.804;2023-04-15T04:52:02;8.17;118.99
66726;HTU21D;53638;51.062;5.804;2023-04-15T04:54:29;8.05;118.99
66726;HTU21D;53638;51.062;5.804;2023-04-15T04:56:57;7.96;118.99
66726;HTU21D;53638;51.062;5.804;2023-04-15T04:59:24;7.87;118.99
66726;HTU21D;53638;51.062;5.804;2023-04-15T05:01:51;7.77;118.99
66726;HTU21D;53638;51.062;5.804;2023-04-15T05:04:20;7.74;118.99
66726;HTU21D;53638;51.062;5.804;2023-04-15T05:06:47;7.65;118.99
66726;HTU21D;53638;51.062;5.804;2023-04-15T05:09:14;7.60;118.99
66726;HTU21D;53638;51.062;5.804;2023-04-15T05:11:41;7.54;118.99
66726;HTU21D;53638;51.062;5.804;2023-04-15T05:14:09;7.48;118.99
66726;HTU21D;53638;51.062;5.804;2023-04-15T05:16:36;7.44;118.99
66726;HTU21D;53638;51.062;5.804;2023-04-15T05:19:03;7.46;118.99
66726;HTU21D;53638;51.062;5.804;2023-04-15T05:21:30;7.44;118.99
66726;HTU21D;53638;51.062;5.804;2023-04-15T05:23:57;7.39;118.99
66726;HTU21D;53638;51.062;5.804;2023-04-15T05:26:24;7.33;118.99
66726;HTU21D;53638;51.062;5.804;2023-04-15T05:28:53;7.26;118.99
66726;HTU21D;53638;51.062;5.804;2023-04-15T05:31:20;7.19;118.99
66726;HTU21D;53638;51.062;5.804;2023-04-15T05:33:47;7.16;118.99
66726;HTU21D;53638;51.062;5.804;2023-04-15T05:36:15;7.22;118.99
66726;HTU21D;53638;51.062;5.804;2023-04-15T05:38:42;7.17;118.99
66726;HTU21D;53638;51.062;5.804;2023-04-15T05:41:09;7.19;118.99
66726;HTU21D;53638;51.062;5.804;2023-04-15T05:43:36;7.27;118.99
66726;HTU21D;53638;51.062;5.804;2023-04-15T05:46:03;7.29;118.99
66726;HTU21D;53638;51.062;5.804;2023-04-15T05:48:31;7.31;118.99
66726;HTU21D;53638;51.062;5.804;2023-04-15T05:50:59;7.33;118.99
66726;HTU21D;53638;51.062;5.804;2023-04-15T05:53:27;7.31;118.99
66726;HTU21D;53638;51.062;5.804;2023-04-15T05:55:54;7.32;118.99
66726;HTU21D;53638;51.062;5.804;2023-04-15T05:58:21;7.34;118.99
66726;HTU21D;53638;51.062;5.804;2023-04-15T06:00:48;7.40;118.99
66726;HTU21D;53638;51.062;5.804;2023-04-15T06:03:15;7.42;118.99
66726;HTU21D;53638;51.062;5.804;2023-04-15T06:05:42;7.50;118.99
66726;HTU21D;53638;51.062;5.804;2023-04-15T06:08:10;7.57;118.99
66726;HTU21D;53638;51.062;5.804;2023-04-15T06:10:38;7.62;118.99
66726;HTU21D;53638;51.062;5.804;2023-04-15T06:13:05;7.65;118.99
66726;HTU21D;53638;51.062;5.804;2023-04-15T06:15:33;7.65;118.99
66726;HTU21D;53638;51.062;5.804;2023-04-15T06:18:00;7.70;118.99
66726;HTU21D;53638;51.062;5.804;2023-04-15T06:20:27;7.76;118.99
66726;HTU21D;53638;51.062;5.804;2023-04-15T06:22:55;7.81;118.99
66726;HTU21D;53638;51.062;5.804;2023-04-15T06:25:23;7.84;118.99
66726;HTU21D;53638;51.062;5.804;2023-04-15T06:27:50;7.85;118.99
66726;HTU21D;53638;51.062;5.804;2023-04-15T06:30:17;7.87;118.99
66726;HTU21D;53638;51.062;5.804;2023-04-15T06:32:44;7.92;118.99
66726;HTU21D;53638;51.062;5.804;2023-04-15T06:35:12;7.96;118.99
66726;HTU21D;53638;51.062;5.804;2023-04-15T06:37:39;8.02;118.99
66726;HTU21D;53638;51.062;5.804;2023-04-15T06:40:07;8.07;118.99
66726;HTU21D;53638;51.062;5.804;2023-04-15T06:42:37;8.11;118.99
66726;HTU21D;53638;51.062;5.804;2023-04-15T06:45:04;8.14;118.99
66726;HTU21D;53638;51.062;5.804;2023-04-15T06:47:32;8.16;118.99
66726;HTU21D;53638;51.062;5.804;2023-04-15T06:49:59;8.22;118.99
66726;HTU21D;53638;51.062;5.804;2023-04-15T06:52:26;8.20;118.99
66726;HTU21D;53638;51.062;5.804;2023-04-15T06:54:53;8.22;118.99
66726;HTU21D;53638;51.062;5.804;2023-04-15T06:57:21;8.26;118.99
66726;HTU21D;53638;51.062;5.804;2023-04-15T06:59:48;8.30;118.99
66726;HTU21D;53638;51.062;5.804;2023-04-15T07:02:15;8.37;118.99
66726;HTU21D;53638;51.062;5.804;2023-04-15T07:04:42;8.42;118.99
66726;HTU21D;53638;51.062;5.804;2023-04-15T07:07:09;8.48;118.99
66726;HTU21D;53638;51.062;5.804;2023-04-15T07:09:36;8.55;118.99
66726;HTU21D;53638;51.062;5.804;2023-04-15T07:12:04;8.63;118.99
66726;HTU21D;53638;51.062;5.804;2023-04-15T07:14:31;8.70;118.99
66726;HTU21D;53638;51.062;5.804;2023-04-15T07:16:58;8.77;118.99
66726;HTU21D;53638;51.062;5.804;2023-04-15T07:19:25;8.78;118.99
66726;HTU21D;53638;51.062;5.804;2023-04-15T07:21:53;8.81;118.99
66726;HTU21D;53638;51.062;5.804;2023-04-15T07:24:20;8.86;118.99
66726;HTU21D;53638;51.062;5.804;2023-04-15T07:26:49;8.83;118.99
66726;HTU21D;53638;51.062;5.804;2023-04-15T07:29:16;8.85;118.99
66726;HTU21D;53638;51.062;5.804;2023-04-15T07:31:43;8.88;118.99
66726;HTU21D;53638;51.062;5.804;2023-04-15T07:34:10;8.92;118.99
66726;HTU21D;53638;51.062;5.804;2023-04-15T07:36:37;8.95;118.99
66726;HTU21D;53638;51.062;5.804;2023-04-15T07:39:04;8.97;118.99
66726;HTU21D;53638;51.062;5.804;2023-04-15T07:41:31;9.04;118.99
66726;HTU21D;53638;51.062;5.804;2023-04-15T07:43:59;9.16;118.99
66726;HTU21D;53638;51.062;5.804;2023-04-15T07:46:26;9.20;118.99
66726;HTU21D;53638;51.062;5.804;2023-04-15T07:48:54;9.34;118.99
66726;HTU21D;53638;51.062;5.804;2023-04-15T07:51:21;9.47;118.99
66726;HTU21D;53638;51.062;5.804;2023-04-15T07:53:49;9.63;118.99
66726;HTU21D;53638;51.062;5.804;2023-04-15T07:56:16;9.78;118.99
66726;HTU21D;53638;51.062;5.804;2023-04-15T07:58:43;9.92;118.99
66726;HTU21D;53638;51.062;5.804;2023-04-15T08:01:10;10.07;118.99
66726;HTU21D;53638;51.062;5.804;2023-04-15T08:03:38;10.16;118.99
66726;HTU21D;53638;51.062;5.804;2023-04-15T08:06:05;10.16;118.99
66726;HTU21D;53638;51.062;5.804;2023-04-15T08:08:32;10.27;118.99
66726;HTU21D;53638;51.062;5.804;2023-04-15T08:10:59;10.38;118.99
66726;HTU21D;53638;51.062;5.804;2023-04-15T08:13:26;10.49;118.99
66726;HTU21D;53638;51.062;5.804;2023-04-15T08:16:19;10.62;118.99
66726;HTU21D;53638;51.062;5.804;2023-04-15T08:18:48;10.70;118.99
66726;HTU21D;53638;51.062;5.804;2023-04-15T08:21:16;10.82;118.99
66726;HTU21D;53638;51.062;5.804;2023-04-15T08:23:45;10.90;118.99
66726;HTU21D;53638;51.062;5.804;2023-04-15T08:26:12;11.02;118.99
66726;HTU21D;53638;51.062;5.804;2023-04-15T08:28:41;11.17;118.99
66726;HTU21D;53638;51.062;5.804;2023-04-15T08:31:08;11.29;118.99
66726;HTU21D;53638;51.062;5.804;2023-04-15T08:33:35;11.43;118.99
66726;HTU21D;53638;51.062;5.804;2023-04-15T08:36:03;11.57;118.99
66726;HTU21D;53638;51.062;5.804;2023-04-15T08:38:30;11.61;118.99
66726;HTU21D;53638;51.062;5.804;2023-04-15T08:40:59;11.68;118.99
66726;HTU21D;53638;51.062;5.804;2023-04-15T08:43:33;11.71;118.99
66726;HTU21D;53638;51.062;5.804;2023-04-15T08:46:01;11.76;118.99
66726;HTU21D;53638;51.062;5.804;2023-04-15T08:48:32;11.91;118.99
66726;HTU21D;53638;51.062;5.804;2023-04-15T08:51:01;11.96;118.99
66726;HTU21D;53638;51.062;5.804;2023-04-15T08:53:28;11.88;118.99
66726;HTU21D;53638;51.062;5.804;2023-04-15T08:55:56;11.85;118.99
66726;HTU21D;53638;51.062;5.804;2023-04-15T08:58:26;11.97;118.99
66726;HTU21D;53638;51.062;5.804;2023-04-15T09:00:54;12.04;118.99
66726;HTU21D;53638;51.062;5.804;2023-04-15T09:03:22;12.11;118.99
66726;HTU21D;53638;51.062;5.804;2023-04-15T09:05:50;12.19;118.99
66726;HTU21D;53638;51.062;5.804;2023-04-15T09:08:18;12.14;118.99
66726;HTU21D;53638;51.062;5.804;2023-04-15T09:10:45;12.14;118.99
66726;HTU21D;53638;51.062;5.804;2023-04-15T09:13:12;12.17;118.99
66726;HTU21D;53638;51.062;5.804;2023-04-15T09:15:39;12.31;118.99
66726;HTU21D;53638;51.062;5.804;2023-04-15T09:18:07;12.44;118.99
66726;HTU21D;53638;51.062;5.804;2023-04-15T09:20:40;12.55;118.99
66726;HTU21D;53638;51.062;5.804;2023-04-15T09:23:13;12.52;118.99
66726;HTU21D;53638;51.062;5.804;2023-04-15T09:25:41;12.62;118.99
66726;HTU21D;53638;51.062;5.804;2023-04-15T09:28:08;12.60;118.99
66726;HTU21D;53638;51.062;5.804;2023-04-15T09:30:36;12.73;118.99
66726;HTU21D;53638;51.062;5.804;2023-04-15T09:33:04;12.89;118.99
66726;HTU21D;53638;51.062;5.804;2023-04-15T09:35:37;12.97;118.99
66726;HTU21D;53638;51.062;5.804;2023-04-15T09:38:06;13.06;118.99
66726;HTU21D;53638;51.062;5.804;2023-04-15T09:40:37;13.19;118.99
66726;HTU21D;53638;51.062;5.804;2023-04-15T09:43:06;13.40;118.99
66726;HTU21D;53638;51.062;5.804;2023-04-15T09:45:35;13.55;118.99
66726;HTU21D;53638;51.062;5.804;2023-04-15T09:48:18;13.66;118.99
66726;HTU21D;53638;51.062;5.804;2023-04-15T09:50:48;13.66;118.99
66726;HTU21D;53638;51.062;5.804;2023-04-15T09:53:19;13.70;117.85
66726;HTU21D;53638;51.062;5.804;2023-04-15T09:55:54;13.80;117.08
66726;HTU21D;53638;51.062;5.804;2023-04-15T09:58:25;13.93;117.26
66726;HTU21D;53638;51.062;5.804;2023-04-15T10:00:54;14.07;116.72
66726;HTU21D;53638;51.062;5.804;2023-04-15T10:03:27;14.14;117.28
66726;HTU21D;53638;51.062;5.804;2023-04-15T10:05:56;14.25;116.20
66726;HTU21D;53638;51.062;5.804;2023-04-15T10:08:26;14.28;115.20
66726;HTU21D;53638;51.062;5.804;2023-04-15T10:10:54;14.17;115.73
66726;HTU21D;53638;51.062;5.804;2023-04-15T10:13:24;14.13;116.75
66726;HTU21D;53638;51.062;5.804;2023-04-15T10:15:58;14.22;117.79
66726;HTU21D;53638;51.062;5.804;2023-04-15T10:18:27;14.37;118.89
66726;HTU21D;53638;51.062;5.804;2023-04-15T10:20:54;14.42;116.02
66726;HTU21D;53638;51.062;5.804;2023-04-15T10:23:22;14.55;117.50
66726;HTU21D;53638;51.062;5.804;2023-04-15T10:25:52;14.63;116.62
66726;HTU21D;53638;51.062;5.804;2023-04-15T10:28:21;14.77;115.10
66726;HTU21D;53638;51.062;5.804;2023-04-15T10:30:49;14.96;115.17
66726;HTU21D;53638;51.062;5.804;2023-04-15T10:33:19;15.13;114.61
66726;HTU21D;53638;51.062;5.804;2023-04-15T10:35:48;15.17;114.10
66726;HTU21D;53638;51.062;5.804;2023-04-15T10:38:36;15.17;116.33
66726;HTU21D;53638;51.062;5.804;2023-04-15T10:41:20;15.25;111.36
66726;HTU21D;53638;51.062;5.804;2023-04-15T10:43:50;15.21;113.39
66726;HTU21D;53638;51.062;5.804;2023-04-15T10:46:22;15.08;114.71
66726;HTU21D;53638;51.062;5.804;2023-04-15T10:48:51;15.21;114.30
66726;HTU21D;53638;51.062;5.804;2023-04-15T10:51:28;15.42;114.07
66726;HTU21D;53638;51.062;5.804;2023-04-15T10:53:58;15.42;109.12
66726;HTU21D;53638;51.062;5.804;2023-04-15T10:56:28;15.30;107.41
66726;HTU21D;53638;51.062;5.804;2023-04-15T10:58:58;15.28;104.57
66726;HTU21D;53638;51.062;5.804;2023-04-15T11:01:50;15.57;112.19
66726;HTU21D;53638;51.062;5.804;2023-04-15T11:04:51;15.90;112.67
66726;HTU21D;53638;51.062;5.804;2023-04-15T11:12:40;18.43;99.48
66726;HTU21D;53638;51.062;5.804;2023-04-15T11:17:55;20.32;94.36
66726;HTU21D;53638;51.062;5.804;2023-04-15T11:20:23;20.44;94.18
66726;HTU21D;53638;51.062;5.804;2023-04-15T11:22:52;20.24;94.34
66726;HTU21D;53638;51.062;5.804;2023-04-15T11:25:25;20.16;92.48
66726;HTU21D;53638;51.062;5.804;2023-04-15T11:27:54;20.15;96.24
66726;HTU21D;53638;51.062;5.804;2023-04-15T11:30:23;20.29;91.84
66726;HTU21D;53638;51.062;5.804;2023-04-15T11:32:53;20.32;93.94
66726;HTU21D;53638;51.062;5.804;2023-04-15T11:35:20;20.31;91.98
66726;HTU21D;53638;51.062;5.804;2023-04-15T11:37:48;20.72;90.24
66726;HTU21D;53638;51.062;5.804;2023-04-15T11:40:22;21.47;88.42
66726;HTU21D;53638;51.062;5.804;2023-04-15T11:43:05;21.94;88.66
66726;HTU21D;53638;51.062;5.804;2023-04-15T11:45:32;21.99;81.58
66726;HTU21D;53638;51.062;5.804;2023-04-15T11:48:05;20.91;87.94
66726;HTU21D;53638;51.062;5.804;2023-04-15T11:50:34;20.17;94.09
66726;HTU21D;53638;51.062;5.804;2023-04-15T11:53:03;19.92;90.57
66726;HTU21D;53638;51.062;5.804;2023-04-15T11:55:30;20.16;94.71
66726;HTU21D;53638;51.062;5.804;2023-04-15T11:58:15;20.95;92.08
66726;HTU21D;53638;51.062;5.804;2023-04-15T12:00:49;21.38;90.31
66726;HTU21D;53638;51.062;5.804;2023-04-15T12:03:27;21.44;89.21
66726;HTU21D;53638;51.062;5.804;2023-04-15T12:06:15;21.77;88.96
66726;HTU21D;53638;51.062;5.804;2023-04-15T12:11:19;24.11;87.06
66726;HTU21D;53638;51.062;5.804;2023-04-15T12:13:48;23.14;83.18
66726;HTU21D;53638;51.062;5.804;2023-04-15T12:16:17;22.01;88.58
66726;HTU21D;53638;51.062;5.804;2023-04-15T12:18:45;21.76;88.03
66726;HTU21D;53638;51.062;5.804;2023-04-15T12:21:12;21.63;91.89
66726;HTU21D;53638;51.062;5.804;2023-04-15T12:23:48;21.78;91.85
66726;HTU21D;53638;51.062;5.804;2023-04-15T12:26:15;21.13;89.34
66726;HTU21D;53638;51.062;5.804;2023-04-15T12:28:42;20.77;88.91
66726;HTU21D;53638;51.062;5.804;2023-04-15T12:31:10;20.32;90.73
66726;HTU21D;53638;51.062;5.804;2023-04-15T12:33:38;20.50;92.35
66726;HTU21D;53638;51.062;5.804;2023-04-15T12:36:04;20.62;89.20
66726;HTU21D;53638;51.062;5.804;2023-04-15T12:38:30;20.92;90.10
66726;HTU21D;53638;51.062;5.804;2023-04-15T12:40:57;21.73;86.34
66726;HTU21D;53638;51.062;5.804;2023-04-15T12:43:24;21.92;86.45
66726;HTU21D;53638;51.062;5.804;2023-04-15T12:45:50;21.63;90.07
66726;HTU21D;53638;51.062;5.804;2023-04-15T12:48:16;21.70;87.88
66726;HTU21D;53638;51.062;5.804;2023-04-15T12:50:42;21.19;86.99
66726;HTU21D;53638;51.062;5.804;2023-04-15T12:53:08;20.83;90.45
66726;HTU21D;53638;51.062;5.804;2023-04-15T12:55:34;20.72;92.70
66726;HTU21D;53638;51.062;5.804;2023-04-15T12:58:00;20.69;90.96
66726;HTU21D;53638;51.062;5.804;2023-04-15T13:00:26;21.00;90.66
66726;HTU21D;53638;51.062;5.804;2023-04-15T13:02:52;21.31;90.93
66726;HTU21D;53638;51.062;5.804;2023-04-15T13:05:19;21.50;82.33
66726;HTU21D;53638;51.062;5.804;2023-04-15T13:07:45;21.52;89.84
66726;HTU21D;53638;51.062;5.804;2023-04-15T13:10:12;21.38;88.54
66726;HTU21D;53638;51.062;5.804;2023-04-15T13:12:38;21.19;90.98
66726;HTU21D;53638;51.062;5.804;2023-04-15T13:15:04;20.66;88.73
66726;HTU21D;53638;51.062;5.804;2023-04-15T13:17:30;20.32;94.14
66726;HTU21D;53638;51.062;5.804;2023-04-15T13:19:56;20.19;89.72
66726;HTU21D;53638;51.062;5.804;2023-04-15T13:22:22;20.07;92.69
66726;HTU21D;53638;51.062;5.804;2023-04-15T13:24:48;20.49;95.07
66726;HTU21D;53638;51.062;5.804;2023-04-15T13:27:14;20.98;91.37
66726;HTU21D;53638;51.062;5.804;2023-04-15T13:29:40;21.46;90.91
66726;HTU21D;53638;51.062;5.804;2023-04-15T13:32:06;22.43;89.71
66726;HTU21D;53638;51.062;5.804;2023-04-15T13:34:31;22.56;87.99
66726;HTU21D;53638;51.062;5.804;2023-04-15T13:36:57;22.40;85.77
66726;HTU21D;53638;51.062;5.804;2023-04-15T13:39:23;22.06;87.31
66726;HTU21D;53638;51.062;5.804;2023-04-15T13:41:49;21.68;88.64
66726;HTU21D;53638;51.062;5.804;2023-04-15T13:44:15;21.11;86.93
66726;HTU21D;53638;51.062;5.804;2023-04-15T13:46:41;20.79;89.89
66726;HTU21D;53638;51.062;5.804;2023-04-15T13:49:07;20.50;88.85
66726;HTU21D;53638;51.062;5.804;2023-04-15T13:51:33;20.19;87.78
66726;HTU21D;53638;51.062;5.804;2023-04-15T13:54:01;20.11;90.69
66726;HTU21D;53638;51.062;5.804;2023-04-15T13:56:28;19.89;93.66
66726;HTU21D;53638;51.062;5.804;2023-04-15T13:58:54;20.76;94.71
66726;HTU21D;53638;51.062;5.804;2023-04-15T14:01:24;22.82;87.78
66726;HTU21D;53638;51.062;5.804;2023-04-15T14:03:50;24.17;79.92
66726;HTU21D;53638;51.062;5.804;2023-04-15T14:06:16;23.17;81.87
66726;HTU21D;53638;51.062;5.804;2023-04-15T14:08:42;21.72;85.58
66726;HTU21D;53638;51.062;5.804;2023-04-15T14:11:08;21.18;86.63
66726;HTU21D;53638;51.062;5.804;2023-04-15T14:13:35;21.84;87.80
66726;HTU21D;53638;51.062;5.804;2023-04-15T14:16:01;24.24;82.77
66726;HTU21D;53638;51.062;5.804;2023-04-15T14:18:27;25.94;75.44
66726;HTU21D;53638;51.062;5.804;2023-04-15T14:20:54;24.34;80.72
66726;HTU21D;53638;51.062;5.804;2023-04-15T14:23:20;21.94;78.75
66726;HTU21D;53638;51.062;5.804;2023-04-15T14:25:46;20.78;86.34
66726;HTU21D;53638;51.062;5.804;2023-04-15T14:28:12;20.94;88.80
66726;HTU21D;53638;51.062;5.804;2023-04-15T14:30:38;21.88;86.29
66726;HTU21D;53638;51.062;5.804;2023-04-15T14:33:04;21.48;86.87
66726;HTU21D;53638;51.062;5.804;2023-04-15T14:35:30;20.41;88.88
66726;HTU21D;53638;51.062;5.804;2023-04-15T14:37:56;19.73;88.44
66726;HTU21D;53638;51.062;5.804;2023-04-15T14:40:22;19.42;89.40
66726;HTU21D;53638;51.062;5.804;2023-04-15T14:42:48;19.32;92.67
66726;HTU21D;53638;51.062;5.804;2023-04-15T14:45:14;19.07;89.13
66726;HTU21D;53638;51.062;5.804;2023-04-15T14:47:40;18.96;93.37
66726;HTU21D;53638;51.062;5.804;2023-04-15T14:50:06;19.52;91.12
66726;HTU21D;53638;51.062;5.804;2023-04-15T14:52:32;19.57;92.56
66726;HTU21D;53638;51.062;5.804;2023-04-15T14:55:06;19.57;89.60
66726;HTU21D;53638;51.062;5.804;2023-04-15T14:57:32;19.21;91.98
66726;HTU21D;53638;51.062;5.804;2023-04-15T14:59:58;18.62;92.20
66726;HTU21D;53638;51.062;5.804;2023-04-15T15:02:24;18.87;92.43
66726;HTU21D;53638;51.062;5.804;2023-04-15T15:04:50;19.10;93.26
66726;HTU21D;53638;51.062;5.804;2023-04-15T15:07:16;19.15;93.12
66726;HTU21D;53638;51.062;5.804;2023-04-15T15:09:42;19.55;91.75
66726;HTU21D;53638;51.062;5.804;2023-04-15T15:12:07;19.06;87.48
66726;HTU21D;53638;51.062;5.804;2023-04-15T15:14:33;18.07;88.75
66726;HTU21D;53638;51.062;5.804;2023-04-15T15:16:59;17.58;92.84
66726;HTU21D;53638;51.062;5.804;2023-04-15T15:19:26;17.32;96.21
66726;HTU21D;53638;51.062;5.804;2023-04-15T15:21:51;17.11;96.24
66726;HTU21D;53638;51.062;5.804;2023-04-15T15:24:17;17.02;101.07
66726;HTU21D;53638;51.062;5.804;2023-04-15T15:26:43;16.88;97.85
66726;HTU21D;53638;51.062;5.804;2023-04-15T15:29:09;16.75;98.97